createdAt,value
2023-01-01T00:01:21.428Z,14.25
2023-01-01T00:03:51.325Z,12.10
2023-01-01T00:06:17.732Z,14.57
2023-01-01T00:08:44.210Z,16.98
2023-01-01T00:11:11.015Z,20.83
2023-01-01T00:13:38.252Z,16.15
2023-01-01T00:16:08.904Z,15.23
2023-01-01T00:18:35.678Z,19.05
2023-01-01T00:21:05.910Z,14.77
2023-01-01T00:23:32.298Z,15.13
2023-01-01T00:25:58.661Z,19.85
2023-01-01T00:28:25.138Z,20.48
2023-01-01T00:30:51.591Z,20.08
2023-01-01T00:33:17.972Z,13.82
2023-01-01T00:35:44.321Z,14.95
2023-01-01T00:38:10.678Z,16.33
2023-01-01T00:40:37.053Z,14.63
2023-01-01T00:43:03.401Z,19.83
2023-01-01T00:45:29.764Z,14.23
2023-01-01T00:47:56.099Z,19.23
2023-01-01T00:50:22.813Z,13.90
2023-01-01T00:52:49.684Z,22.00
2023-01-01T00:55:16.128Z,22.10
2023-01-01T00:57:42.474Z,18.17
2023-01-01T01:00:09.265Z,18.52
2023-01-01T01:02:35.769Z,22.23
2023-01-01T01:05:03.647Z,17.90
2023-01-01T01:07:33.400Z,17.35
2023-01-01T01:09:59.721Z,20.13
2023-01-01T01:12:26.055Z,18.58
2023-01-01T01:14:52.378Z,17.27
2023-01-01T01:17:18.753Z,18.98
2023-01-01T01:19:45.083Z,16.50
2023-01-01T01:22:11.439Z,18.48
2023-01-01T01:24:37.775Z,25.27
2023-01-01T01:27:04.108Z,18.92
2023-01-01T01:29:30.442Z,19.48
2023-01-01T01:31:56.799Z,18.05
2023-01-01T01:34:27.879Z,19.67
2023-01-01T01:36:54.958Z,24.85
2023-01-01T01:39:21.404Z,16.58
2023-01-01T01:41:47.841Z,18.60
2023-01-01T01:44:32.947Z,18.70
2023-01-01T01:47:00.026Z,16.85
2023-01-01T01:49:30.766Z,19.43
2023-01-01T01:51:59.002Z,23.35
2023-01-01T01:54:27.644Z,18.70
2023-01-01T01:56:56.705Z,20.25
2023-01-01T01:59:25.163Z,16.90
2023-01-01T02:01:52.162Z,16.80
2023-01-01T02:04:18.781Z,25.63
2023-01-01T02:06:45.231Z,21.88
2023-01-01T02:09:11.639Z,19.48
2023-01-01T02:11:38.103Z,15.65
2023-01-01T02:14:04.584Z,18.45
2023-01-01T02:16:34.087Z,18.48
2023-01-01T02:19:05.731Z,26.77
2023-01-01T02:21:41.667Z,21.45
2023-01-01T02:24:09.812Z,19.58
2023-01-01T02:26:46.074Z,18.20
2023-01-01T02:29:25.325Z,22.48
2023-01-01T02:31:59.673Z,24.17
2023-01-01T02:34:28.531Z,26.75
2023-01-01T02:36:55.233Z,21.08
2023-01-01T02:39:22.748Z,25.67
2023-01-01T02:41:52.541Z,18.00
2023-01-01T02:44:19.757Z,24.42
2023-01-01T02:46:46.123Z,22.05
2023-01-01T02:49:12.556Z,22.13
2023-01-01T02:51:57.593Z,27.60
2023-01-01T02:54:35.333Z,24.48
2023-01-01T02:57:07.713Z,23.67
2023-01-01T02:59:52.671Z,29.38
2023-01-01T03:02:24.941Z,25.50
2023-01-01T03:05:06.269Z,26.65
2023-01-01T03:07:51.007Z,28.20
2023-01-01T03:10:28.467Z,27.63
2023-01-01T03:12:57.990Z,24.02
2023-01-01T03:15:36.612Z,20.63
2023-01-01T03:18:13.690Z,21.83
2023-01-01T03:20:42.159Z,15.82
2023-01-01T03:23:12.055Z,19.30
2023-01-01T03:25:47.516Z,22.13
2023-01-01T03:28:18.962Z,20.23
2023-01-01T03:30:47.145Z,20.65
2023-01-01T03:33:17.974Z,18.88
2023-01-01T03:36:13.543Z,20.65
2023-01-01T03:38:39.873Z,16.60
2023-01-01T03:41:17.508Z,21.90
2023-01-01T03:43:49.612Z,12.65
2023-01-01T03:46:17.250Z,10.38
2023-01-01T03:49:03.837Z,14.65
2023-01-01T03:51:30.675Z,9.90
2023-01-01T03:53:59.378Z,3.53
2023-01-01T03:56:35.209Z,5.95
2023-01-01T03:59:07.722Z,2.13
2023-01-01T04:01:37.307Z,4.20
2023-01-01T04:04:05.095Z,4.10
2023-01-01T04:06:32.913Z,3.80
2023-01-01T04:09:00.234Z,4.30
2023-01-01T04:11:46.736Z,3.90
2023-01-01T04:14:13.108Z,4.07
2023-01-01T04:16:39.830Z,6.10
2023-01-01T04:19:08.902Z,3.30
2023-01-01T04:21:35.216Z,2.70
2023-01-01T04:24:01.571Z,1.13
2023-01-01T04:26:27.979Z,4.28
2023-01-01T04:28:54.352Z,3.63
2023-01-01T04:31:20.694Z,3.15
2023-01-01T04:33:47.032Z,4.30
2023-01-01T04:36:13.437Z,4.05
2023-01-01T04:38:39.822Z,5.07
2023-01-01T04:41:06.294Z,5.38
2023-01-01T04:43:32.829Z,4.95
2023-01-01T04:46:00.763Z,4.32
2023-01-01T04:50:54.180Z,4.53
2023-01-01T04:53:20.541Z,9.05
2023-01-01T04:55:46.869Z,8.82
2023-01-01T04:58:13.178Z,9.85
2023-01-01T05:00:39.529Z,13.77
2023-01-01T05:03:05.912Z,13.27
2023-01-01T05:05:32.270Z,16.27
2023-01-01T05:07:58.619Z,13.38
2023-01-01T05:10:24.934Z,13.02
2023-01-01T05:12:51.266Z,12.60
2023-01-01T05:15:17.611Z,15.82
2023-01-01T05:17:43.936Z,17.00
2023-01-01T05:20:10.476Z,19.92
2023-01-01T05:22:37.479Z,19.73
2023-01-01T05:25:03.980Z,15.23
2023-01-01T05:27:30.312Z,18.48
2023-01-01T05:29:56.636Z,22.30
2023-01-01T05:32:23.099Z,18.92
2023-01-01T05:34:49.867Z,20.40
2023-01-01T05:37:16.199Z,31.67
2023-01-01T05:39:42.523Z,22.55
2023-01-01T05:42:08.931Z,30.02
2023-01-01T05:44:35.296Z,27.55
2023-01-01T05:47:01.641Z,42.45
2023-01-01T05:49:28.444Z,28.42
2023-01-01T05:51:54.814Z,52.40
2023-01-01T05:54:21.167Z,41.10
2023-01-01T05:56:47.502Z,42.97
2023-01-01T05:59:13.850Z,37.00
2023-01-01T06:01:45.439Z,37.60
2023-01-01T06:04:12.707Z,40.38
2023-01-01T06:06:39.099Z,37.17
2023-01-01T06:09:05.535Z,33.55
2023-01-01T06:11:32.305Z,35.92
2023-01-01T06:13:59.401Z,30.05
2023-01-01T06:16:26.623Z,26.97
2023-01-01T06:18:53.201Z,37.72
2023-01-01T06:21:20.849Z,39.78
2023-01-01T06:23:47.239Z,36.40
2023-01-01T06:26:17.703Z,35.83
2023-01-01T06:28:44.996Z,34.45
2023-01-01T06:31:12.868Z,29.88
2023-01-01T06:36:06.889Z,31.73
2023-01-01T06:38:34.348Z,28.50
2023-01-01T06:41:02.266Z,24.75
2023-01-01T06:46:00.858Z,26.77
2023-01-01T06:48:30.844Z,31.52
2023-01-01T06:50:57.417Z,26.67
2023-01-01T06:53:27.073Z,19.65
2023-01-01T06:55:57.418Z,24.48
2023-01-01T06:58:24.007Z,23.70
2023-01-01T07:00:50.631Z,19.58
2023-01-01T07:03:17.053Z,26.75
2023-01-01T07:05:43.532Z,15.63
2023-01-01T07:08:09.983Z,16.15
2023-01-01T07:10:36.454Z,23.80
2023-01-01T07:13:02.969Z,20.42
2023-01-01T07:15:29.438Z,26.55
2023-01-01T07:17:55.836Z,28.73
2023-01-01T07:20:22.231Z,20.20
2023-01-01T07:22:48.591Z,23.58
2023-01-01T07:25:16.006Z,21.48
2023-01-01T07:27:42.328Z,27.30
2023-01-01T07:30:09.471Z,24.00
2023-01-01T07:32:35.835Z,26.10
2023-01-01T07:35:02.254Z,28.33
2023-01-01T07:37:28.587Z,29.65
2023-01-01T07:39:54.891Z,24.45
2023-01-01T07:42:21.216Z,27.95
2023-01-01T07:44:47.571Z,25.63
2023-01-01T07:47:26.718Z,18.45
2023-01-01T07:49:53.402Z,22.05
2023-01-01T07:52:20.025Z,21.98
2023-01-01T07:54:46.394Z,24.70
2023-01-01T07:57:12.858Z,24.02
2023-01-01T07:59:39.195Z,26.63
2023-01-01T08:02:05.690Z,25.30
2023-01-01T08:04:32.084Z,35.90
2023-01-01T08:06:58.451Z,29.73
2023-01-01T08:09:24.784Z,30.60
2023-01-01T08:11:53.180Z,30.17
2023-01-01T08:14:19.840Z,26.27
2023-01-01T08:16:46.199Z,28.73
2023-01-01T08:19:12.591Z,35.53
2023-01-01T08:21:38.926Z,35.72
2023-01-01T08:24:05.394Z,22.33
2023-01-01T08:26:32.755Z,27.77
2023-01-01T08:28:59.447Z,27.52
2023-01-01T08:31:25.835Z,30.75
2023-01-01T08:33:52.239Z,30.38
2023-01-01T08:36:20.761Z,32.63
2023-01-01T08:38:47.093Z,28.58
2023-01-01T08:41:13.436Z,29.20
2023-01-01T08:43:39.757Z,26.45
2023-01-01T08:46:06.112Z,22.70
2023-01-01T08:48:32.424Z,28.58
2023-01-01T08:51:00.349Z,40.70
2023-01-01T08:56:03.953Z,34.55
2023-01-01T08:58:30.715Z,30.73
2023-01-01T09:00:57.182Z,30.40
2023-01-01T09:03:23.630Z,29.98
2023-01-01T09:05:50.054Z,35.97
2023-01-01T09:08:16.380Z,33.65
2023-01-01T09:10:43.714Z,35.20
2023-01-01T09:13:10.675Z,32.90
2023-01-01T09:15:37.251Z,28.25
2023-01-01T09:18:03.712Z,30.95
2023-01-01T09:20:30.096Z,32.15
2023-01-01T09:23:01.007Z,29.85
2023-01-01T09:25:30.690Z,30.73
2023-01-01T09:28:01.081Z,31.33
2023-01-01T09:30:27.445Z,37.00
2023-01-01T09:32:53.855Z,32.13
2023-01-01T09:35:20.501Z,38.28
2023-01-01T09:37:46.829Z,34.60
2023-01-01T09:40:28.249Z,32.47
2023-01-01T09:43:06.371Z,29.02
2023-01-01T09:45:37.468Z,35.28
2023-01-01T09:48:11.497Z,32.08
2023-01-01T09:50:42.373Z,35.88
2023-01-01T09:53:17.510Z,32.08
2023-01-01T09:55:53.990Z,28.65
2023-01-01T09:58:23.172Z,24.95
2023-01-01T10:00:52.558Z,33.35
2023-01-01T10:03:25.060Z,28.00
2023-01-01T10:05:54.297Z,26.05
2023-01-01T10:08:30.034Z,32.13
2023-01-01T10:10:59.156Z,34.90
2023-01-01T10:13:38.097Z,34.47
2023-01-01T10:16:08.788Z,31.02
2023-01-01T10:18:38.231Z,29.15
2023-01-01T10:21:13.813Z,29.27
2023-01-01T10:23:49.550Z,27.42
2023-01-01T10:26:17.042Z,37.83
2023-01-01T10:28:48.346Z,37.85
2023-01-01T10:31:16.360Z,34.83
2023-01-01T10:33:43.043Z,31.25
2023-01-01T10:36:11.801Z,27.73
2023-01-01T10:38:38.938Z,30.90
2023-01-01T10:41:19.577Z,33.72
2023-01-01T10:43:47.104Z,29.67
2023-01-01T10:46:15.647Z,41.33
2023-01-01T10:48:56.055Z,31.42
2023-01-01T10:51:24.885Z,33.00
2023-01-01T10:53:52.229Z,33.33
2023-01-01T10:56:19.770Z,25.02
2023-01-01T10:58:55.995Z,21.55
2023-01-01T11:01:22.525Z,22.23
2023-01-01T11:04:02.348Z,26.42
2023-01-01T11:06:46.617Z,18.98
2023-01-01T11:09:23.500Z,22.40
2023-01-01T11:12:00.798Z,22.48
2023-01-01T11:14:38.367Z,19.08
2023-01-01T11:17:05.066Z,23.08
2023-01-01T11:19:36.784Z,19.95
2023-01-01T11:22:03.945Z,19.63
2023-01-01T11:24:31.049Z,26.13
2023-01-01T11:27:16.123Z,23.27
2023-01-01T11:29:42.482Z,18.90
2023-01-01T11:32:09.151Z,25.88
2023-01-01T11:34:37.046Z,24.38
2023-01-01T11:39:31.959Z,21.40
2023-01-01T11:41:58.494Z,19.90
2023-01-01T11:44:33.000Z,16.48
2023-01-01T11:46:59.402Z,20.20
2023-01-01T11:49:26.731Z,17.70
2023-01-01T11:51:53.284Z,24.05
2023-01-01T11:54:31.236Z,22.90
2023-01-01T11:57:00.569Z,22.13
2023-01-01T11:59:29.062Z,19.92
2023-01-01T12:01:58.227Z,26.50
2023-01-01T12:04:32.983Z,25.75
2023-01-01T12:07:10.866Z,25.63
2023-01-01T12:09:37.181Z,22.35
2023-01-01T12:12:08.204Z,20.95
2023-01-01T12:14:57.884Z,30.13
2023-01-01T12:17:44.697Z,22.48
2023-01-01T12:20:25.621Z,26.90
2023-01-01T12:22:55.104Z,20.27
2023-01-01T12:25:21.801Z,28.63
2023-01-01T12:28:04.051Z,25.60
2023-01-01T12:30:40.990Z,23.83
2023-01-01T12:33:08.525Z,26.10
2023-01-01T12:35:40.980Z,24.85
2023-01-01T12:38:10.431Z,23.05
2023-01-01T12:40:47.988Z,30.02
2023-01-01T12:43:21.820Z,21.67
2023-01-01T12:45:48.157Z,27.35
2023-01-01T12:48:33.131Z,28.45
2023-01-01T12:51:17.315Z,30.00
2023-01-01T12:54:06.768Z,31.20
2023-01-01T12:56:38.414Z,25.33
2023-01-01T12:59:06.825Z,39.50
2023-01-01T13:01:34.990Z,31.48
2023-01-01T13:04:07.479Z,32.30
2023-01-01T13:06:42.935Z,31.83
2023-01-01T13:09:19.783Z,33.03
2023-01-01T13:11:49.175Z,28.90
2023-01-01T13:14:15.619Z,27.42
2023-01-01T13:16:43.252Z,34.03
2023-01-01T13:19:31.494Z,33.97
2023-01-01T13:22:17.811Z,45.33
2023-01-01T13:25:02.038Z,28.80
2023-01-01T13:27:47.080Z,35.83
2023-01-01T13:30:32.384Z,37.67
2023-01-01T13:33:25.041Z,34.00
2023-01-01T13:36:07.376Z,37.25
2023-01-01T13:38:52.725Z,33.42
2023-01-01T13:41:25.156Z,35.60
2023-01-01T13:43:52.027Z,31.15
2023-01-01T13:46:23.454Z,30.30
2023-01-01T13:49:08.398Z,30.60
2023-01-01T13:52:09.222Z,31.65
2023-01-01T13:54:35.632Z,38.75
2023-01-01T13:57:12.328Z,35.65
2023-01-01T14:00:02.807Z,37.80
2023-01-01T14:02:31.151Z,35.95
2023-01-01T14:04:57.634Z,31.15
2023-01-01T14:07:56.356Z,28.08
2023-01-01T14:10:25.028Z,34.78
2023-01-01T14:12:52.357Z,34.42
2023-01-01T14:15:26.668Z,38.08
2023-01-01T14:17:54.440Z,30.05
2023-01-01T14:20:22.241Z,37.17
2023-01-01T14:22:49.336Z,36.28
2023-01-01T14:25:19.513Z,34.47
2023-01-01T14:27:45.828Z,34.65
2023-01-01T14:30:18.668Z,36.95
2023-01-01T14:32:45.245Z,66.97
2023-01-01T14:35:14.509Z,42.40
2023-01-01T14:37:40.867Z,42.40
2023-01-01T14:40:08.928Z,44.25
2023-01-01T14:42:36.557Z,34.30
2023-01-01T14:45:03.119Z,54.60
2023-01-01T14:47:31.419Z,42.05
2023-01-01T14:50:01.854Z,57.03
2023-01-01T14:52:31.194Z,52.72
2023-01-01T14:54:59.317Z,77.20
2023-01-01T14:57:27.141Z,51.38
2023-01-01T14:59:54.690Z,39.47
2023-01-01T15:02:22.241Z,31.90
2023-01-01T15:04:48.851Z,36.92
2023-01-01T15:07:22.912Z,46.90
2023-01-01T15:09:49.760Z,47.92
2023-01-01T15:12:18.145Z,41.13
2023-01-01T15:14:45.694Z,70.18
2023-01-01T15:17:13.471Z,37.42
2023-01-01T15:19:43.809Z,46.20
2023-01-01T15:22:29.513Z,32.33
2023-01-01T15:24:56.019Z,34.53
2023-01-01T15:27:24.698Z,39.38
2023-01-01T15:29:51.212Z,37.33
2023-01-01T15:32:23.947Z,58.92
2023-01-01T15:34:51.475Z,47.78
2023-01-01T15:37:21.008Z,37.97
2023-01-01T15:39:49.747Z,35.22
2023-01-01T15:42:24.232Z,38.58
2023-01-01T15:44:50.583Z,33.85
2023-01-01T15:47:17.398Z,66.28
2023-01-01T15:49:43.760Z,37.33
2023-01-01T15:52:21.572Z,40.60
2023-01-01T15:57:20.137Z,33.87
2023-01-01T15:59:47.745Z,32.63
2023-01-01T16:02:16.970Z,19.80
2023-01-01T16:04:47.539Z,40.38
2023-01-01T16:07:20.679Z,29.75
2023-01-01T16:09:50.655Z,23.45
2023-01-01T16:12:21.603Z,34.13
2023-01-01T16:14:48.400Z,49.10
2023-01-01T16:17:19.125Z,54.15
2023-01-01T16:19:46.710Z,50.50
2023-01-01T16:22:17.041Z,56.35
2023-01-01T16:24:44.055Z,98.32
2023-01-01T16:27:10.570Z,62.42
2023-01-01T16:29:39.542Z,34.95
2023-01-01T16:32:14.916Z,36.38
2023-01-01T16:34:41.264Z,73.38
2023-01-01T16:37:07.581Z,102.43
2023-01-01T16:39:34.018Z,43.38
2023-01-01T16:42:00.549Z,36.50
2023-01-01T16:44:26.899Z,104.57
2023-01-01T16:46:53.266Z,24.10
2023-01-01T16:49:19.724Z,53.40
2023-01-01T16:51:46.082Z,80.72
2023-01-01T16:54:12.500Z,32.33
2023-01-01T16:56:39.809Z,92.15
2023-01-01T16:59:06.196Z,92.63
2023-01-01T17:01:32.897Z,106.50
2023-01-01T17:03:59.579Z,22.60
2023-01-01T17:06:26.009Z,21.48
2023-01-01T17:08:52.467Z,83.82
2023-01-01T17:11:18.942Z,53.90
2023-01-01T17:13:46.098Z,111.55
2023-01-01T17:16:15.504Z,88.33
2023-01-01T17:19:17.507Z,26.17
2023-01-01T17:21:35.404Z,67.22
2023-01-01T17:24:01.807Z,162.95
2023-01-01T17:26:28.251Z,58.22
2023-01-01T17:29:00.335Z,20.70
2023-01-01T17:31:28.707Z,19.40
2023-01-01T17:36:21.574Z,21.30
2023-01-01T17:38:47.945Z,22.45
2023-01-01T17:41:15.076Z,18.00
2023-01-01T17:43:42.464Z,22.40
2023-01-01T17:46:16.471Z,31.45
2023-01-01T17:48:43.442Z,25.45
2023-01-01T17:51:09.954Z,21.95
2023-01-01T17:53:38.783Z,11.02
2023-01-01T17:56:09.687Z,16.05
2023-01-01T17:58:36.149Z,15.55
2023-01-01T18:01:21.481Z,12.50
2023-01-01T18:03:48.928Z,46.78
2023-01-01T18:06:15.347Z,20.15
2023-01-01T18:08:41.680Z,20.73
2023-01-01T18:11:08.053Z,28.08
2023-01-01T18:13:35.341Z,23.63
2023-01-01T18:16:02.270Z,23.23
2023-01-01T18:18:30.720Z,18.77
2023-01-01T18:21:19.418Z,28.77
2023-01-01T18:23:45.815Z,34.70
2023-01-01T18:26:12.210Z,12.70
2023-01-01T18:28:39.027Z,18.55
2023-01-01T18:31:09.787Z,11.10
2023-01-01T18:33:36.631Z,12.18
2023-01-01T18:36:13.033Z,7.82
2023-01-01T18:38:39.898Z,11.98
2023-01-01T18:41:24.676Z,13.88
2023-01-01T18:43:51.047Z,26.05
2023-01-01T18:46:17.537Z,23.35
2023-01-01T18:48:43.970Z,18.33
2023-01-01T18:51:23.185Z,29.77
2023-01-01T18:53:57.572Z,27.25
2023-01-01T18:56:24.054Z,13.65
2023-01-01T18:58:50.838Z,17.48
2023-01-01T19:01:18.944Z,19.65
2023-01-01T19:03:47.967Z,24.23
2023-01-01T19:06:20.039Z,19.80
2023-01-01T19:08:46.717Z,33.97
2023-01-01T19:11:15.046Z,23.00
2023-01-01T19:13:41.382Z,13.80
2023-01-01T19:16:10.580Z,23.10
2023-01-01T19:18:38.530Z,15.45
2023-01-01T19:21:07.611Z,16.65
2023-01-01T19:23:35.076Z,17.00
2023-01-01T19:26:03.378Z,15.43
2023-01-01T19:28:31.388Z,10.05
2023-01-01T19:33:24.269Z,17.55
2023-01-01T19:35:50.685Z,37.65
2023-01-01T19:38:17.066Z,11.40
2023-01-01T19:40:43.507Z,20.80
2023-01-01T19:43:09.845Z,21.45
2023-01-01T19:45:36.237Z,23.30
2023-01-01T19:48:02.596Z,21.77
2023-01-01T19:50:28.919Z,17.55
2023-01-01T19:52:55.375Z,26.45
2023-01-01T19:55:21.746Z,16.13
2023-01-01T19:57:48.093Z,21.08
2023-01-01T20:00:14.646Z,11.80
2023-01-01T20:02:46.513Z,18.80
2023-01-01T20:05:13.685Z,24.23
2023-01-01T20:07:40.064Z,17.67
2023-01-01T20:10:06.603Z,15.52
2023-01-01T20:12:32.919Z,13.80
2023-01-01T20:14:59.277Z,14.85
2023-01-01T20:17:25.610Z,9.18
2023-01-01T20:19:54.066Z,21.48
2023-01-01T20:22:21.967Z,16.35
2023-01-01T20:27:17.654Z,14.00
2023-01-01T20:29:44.464Z,15.10
2023-01-01T20:32:12.899Z,13.27
2023-01-01T20:34:39.778Z,14.43
2023-01-01T20:37:24.908Z,16.65
2023-01-01T20:39:51.315Z,16.58
2023-01-01T20:42:17.735Z,21.73
2023-01-01T20:44:44.351Z,12.63
2023-01-01T20:47:11.015Z,17.10
2023-01-01T20:49:37.390Z,25.17
2023-01-01T20:52:03.922Z,17.27
2023-01-01T20:54:30.240Z,27.83
2023-01-01T20:56:56.608Z,18.95
2023-01-01T20:59:39.013Z,19.10
2023-01-01T21:02:06.803Z,18.48
2023-01-01T21:04:38.111Z,27.65
2023-01-01T21:07:07.332Z,14.77
2023-01-01T21:09:33.653Z,19.90
2023-01-01T21:12:00.634Z,15.07
2023-01-01T21:14:27.018Z,14.63
2023-01-01T21:16:53.643Z,14.40
2023-01-01T21:19:26.026Z,19.52
2023-01-01T21:21:54.596Z,20.75
2023-01-01T21:24:23.345Z,17.20
2023-01-01T21:26:50.708Z,26.63
2023-01-01T21:29:18.646Z,19.05
2023-01-01T21:34:25.114Z,16.85
2023-01-01T21:36:52.159Z,17.60
2023-01-01T21:39:22.440Z,18.27
2023-01-01T21:41:48.792Z,13.82
2023-01-01T21:44:15.492Z,13.95
2023-01-01T21:46:47.021Z,22.15
2023-01-01T21:49:22.843Z,10.90
2023-01-01T21:51:50.798Z,20.08
2023-01-01T21:56:52.173Z,12.20
2023-01-01T21:59:28.457Z,13.40
2023-01-01T22:01:57.998Z,13.95
2023-01-01T22:04:28.257Z,11.55
2023-01-01T22:07:00.055Z,7.50
2023-01-01T22:09:29.274Z,10.20
2023-01-01T22:12:14.230Z,10.27
2023-01-01T22:14:44.688Z,7.45
2023-01-01T22:17:25.207Z,10.60
2023-01-01T22:19:52.662Z,6.80
2023-01-01T22:22:21.184Z,9.45
2023-01-01T22:24:54.655Z,7.68
2023-01-01T22:27:24.609Z,10.60
2023-01-01T22:29:51.406Z,6.03
2023-01-01T22:32:29.056Z,9.23
2023-01-01T22:35:02.695Z,11.05
2023-01-01T22:37:32.521Z,9.93
2023-01-01T22:40:00.371Z,14.68
2023-01-01T22:42:29.733Z,8.32
2023-01-01T22:44:57.787Z,11.80
2023-01-01T22:49:52.599Z,10.57
2023-01-01T22:52:19.000Z,8.77
2023-01-01T22:54:45.346Z,10.88
2023-01-01T22:57:11.758Z,12.38
2023-01-01T22:59:38.143Z,14.75
2023-01-01T23:02:06.594Z,9.23
2023-01-01T23:04:33.074Z,10.60
2023-01-01T23:06:59.502Z,11.13
2023-01-01T23:09:25.927Z,15.15
2023-01-01T23:11:55.320Z,12.73
2023-01-01T23:14:40.346Z,13.20
2023-01-01T23:17:06.983Z,12.10
2023-01-01T23:19:33.457Z,15.18
2023-01-01T23:22:01.902Z,9.60
2023-01-01T23:24:28.673Z,14.25
2023-01-01T23:26:55.024Z,9.90
2023-01-01T23:29:22.050Z,11.70
2023-01-01T23:31:48.758Z,6.13
2023-01-01T23:34:15.568Z,12.27
2023-01-01T23:36:42.522Z,7.32
2023-01-01T23:39:08.874Z,11.70
2023-01-01T23:41:35.333Z,16.92
2023-01-01T23:44:01.654Z,10.20
2023-01-01T23:46:28.186Z,12.50
2023-01-01T23:48:54.677Z,8.63
2023-01-01T23:51:21.138Z,10.57
2023-01-01T23:53:47.446Z,10.55
2023-01-01T23:56:13.882Z,10.93
2023-01-01T23:58:40.236Z,13.45
